Waubun, Minnesota
Current Conditions -  °F | °C
As of 10:15 AM on Thursday 29 Jan 2015 (Local Time) from K3N8 Reporting Station
Overcast Overcast  
Wind Chill: -10°   Ceiling: 1500
Heat Index: 11°   Visibility: 7mi
Dew Point:   Wind: 24mph
Humidity: 81%   Direction: 330°NNW
Pressure: 30.38"   Gusts: 30mph
Location:  47.18°N, 95.94°W
Report Text: K3N8 291615Z AUTO 33021G26KT 7SM OVC015 M12/M15 A3038 RMK AO2 T11191146
Loading
Personal Weather Stations






























Interactive Weather Map New forecast layout! Learn more

10-Day Weather Forecast

Advertisements
Track Severe Weather on mobile